Aurora Australis — VNAA — position and weather

sailwx.info

Track history (hours):
 
Tides and Currents Weather Stations Pressure Air Temp Water Temp Dewpoint Dewpoint Depression Visibility Wind Speed Wind Dir Waves Ship Positions

Oceanographic research ship Aurora Australis (Australia)

Detailed information on ship capabilities available from University of Delaware's Ocean Information Center.

Last reported at 2014-Oct-01 04:31 UTC. Time now 2014-Oct-01 05:58 UTC.
Position S 42°53' E 147°20'.

Length 94.9 m; beam 20.3 m; draft 7.9 m.

Type: Cargo ship. MMSI: 503043000.

Date/timePositionNaut miles runAvg speedWind from/ knotsBaromVisibWave heightAir tempDewpointWater temp
2014-Oct-01 04:31S 42°53' E 147°20'0 0.0
2014-Oct-01 03:28S 42°53' E 147°20'0 0.0
2014-Oct-01 02:32S 42°53' E 147°20'0 0.0
2014-Oct-01 01:32S 42°53' E 147°20'0 0.0
2014-Oct-01 00:31S 42°53' E 147°20'0 0.0
2014-Sep-30 23:31S 42°53' E 147°20'0 0.0
2014-Sep-30 22:31S 42°53' E 147°20'0 0.0
2014-Sep-30 21:31S 42°53' E 147°20'0 0.0
2014-Sep-30 20:31S 42°53' E 147°20'0 0.0
2014-Sep-30 19:32S 42°53' E 147°20'0 0.0
2014-Sep-30 18:31S 42°53' E 147°20'0 0.0
2014-Sep-30 17:32S 42°53' E 147°20'0 0.0
2014-Sep-30 16:31S 42°53' E 147°20'0 0.0
2014-Sep-30 15:31S 42°53' E 147°20'0 0.0
2014-Sep-30 14:32S 42°53' E 147°20'0 0.0
2014-Sep-30 13:31S 42°53' E 147°20'0 0.0
2014-Sep-30 12:31S 42°53' E 147°20'0 0.0
2014-Sep-30 11:31S 42°53' E 147°20'0 0.0
2014-Sep-30 10:31S 42°53' E 147°20'0 0.0
2014-Sep-30 09:31S 42°53' E 147°20'0 0.0
2014-Sep-30 08:31S 42°53' E 147°20'0 0.0
2014-Sep-30 07:31S 42°53' E 147°20'0 0.0
2014-Sep-30 06:31S 42°53' E 147°20'0 0.0
2014-Sep-30 05:31S 42°53' E 147°20'0 0.0
2014-Sep-30 04:31S 42°53' E 147°20'0 0.0
2014-Sep-30 03:31S 42°53' E 147°20'0 0.0
2014-Sep-30 02:31S 42°53' E 147°20'0 0.0
2014-Sep-30 01:31S 42°53' E 147°20'0 0.0
2014-Sep-30 00:31S 42°53' E 147°20'0 0.0
2014-Sep-29 23:31S 42°53' E 147°20'0 0.0
2014-Sep-29 22:31S 42°53' E 147°20'0 0.0
2014-Sep-29 21:31S 42°53' E 147°20'0 0.0
2014-Sep-29 20:31S 42°53' E 147°20'0 0.0
2014-Sep-29 19:31S 42°53' E 147°20'0 0.0
2014-Sep-29 18:31S 42°53' E 147°20'0 0.0
2014-Sep-29 17:31S 42°53' E 147°20'0 0.0
2014-Sep-29 16:31S 42°53' E 147°20'0 0.0
2014-Sep-29 15:32S 42°53' E 147°20'0 0.0
2014-Sep-29 14:32S 42°53' E 147°20'0 0.0
2014-Sep-29 13:32S 42°53' E 147°20'0 0.0
2014-Sep-29 12:31S 42°53' E 147°20'0 0.0
2014-Sep-29 11:32S 42°53' E 147°20'0 0.0
2014-Sep-29 10:32S 42°53' E 147°20'0 0.0
2014-Sep-29 09:31S 42°53' E 147°20'0 0.0
2014-Sep-29 08:31S 42°53' E 147°20'0 0.0
2014-Sep-29 07:32S 42°53' E 147°20'0 0.0
2014-Sep-29 06:31S 42°53' E 147°20'0 0.0
2014-Sep-29 05:31S 42°53' E 147°20'0 0.0
2014-Sep-29 04:31S 42°53' E 147°20'0 0.0
2014-Sep-29 03:31S 42°53' E 147°20'0 0.0
2014-Sep-29 02:31S 42°53' E 147°20'0 0.0
2014-Sep-29 01:31S 42°53' E 147°20'0 0.0
2014-Sep-29 00:31S 42°53' E 147°20'0 0.0
2014-Sep-28 23:28S 42°53' E 147°20'0 0.0
2014-Sep-28 22:31S 42°53' E 147°20'0 0.0
2014-Sep-28 21:28S 42°53' E 147°20'0 0.0
2014-Sep-28 20:32S 42°53' E 147°20'0 0.0
2014-Sep-28 19:32S 42°53' E 147°20'0 0.0
2014-Sep-28 18:31S 42°53' E 147°20'0 0.0
2014-Sep-28 17:31S 42°53' E 147°20'0 0.0
2014-Sep-28 16:31S 42°53' E 147°20'0 0.0
2014-Sep-28 15:31S 42°53' E 147°20'0 0.0
2014-Sep-28 14:31S 42°53' E 147°20'0 0.0
2014-Sep-28 13:32S 42°53' E 147°20'0 0.0
2014-Sep-28 12:31S 42°53' E 147°20'0 0.0
2014-Sep-28 11:31S 42°53' E 147°20'0 0.0
2014-Sep-28 10:32S 42°53' E 147°20'0 0.0
2014-Sep-28 09:31S 42°53' E 147°20'0 0.0
2014-Sep-28 08:31S 42°53' E 147°20'2 1.6
2014-Sep-28 07:33S 42°54' E 147°22'9 8.7
2014-Sep-28 06:33S 43°03' E 147°23'8 8.0
2014-Sep-28 05:33S 43°07' E 147°32'8 8.2
2014-Sep-28 04:33S 43°12' E 147°41'6 6.3
2014-Sep-28 03:33S 43°16' E 147°48'3 3.5
2014-Sep-28 02:33S 43°18' E 147°52'6 5.4
2014-Sep-28 01:26S 43°20' E 147°60'0 0.3
2014-Sep-28 00:31S 43°20' E 147°59'1 1.1
2014-Sep-27 23:31S 43°19' E 147°58'1 1.5
2014-Sep-27 22:32S 43°19' E 147°56'5 4.5
2014-Sep-27 21:32S 43°15' E 147°56'1 1.4
2014-Sep-27 20:33S 43°16' E 147°55'6 6.0
2014-Sep-27 19:32S 43°20' E 147°49'6 5.7
2014-Sep-27 18:32S 43°24' E 147°43'5 5.5
2014-Sep-27 17:33S 43°27' E 147°37'4 3.9
2014-Sep-27 16:33S 43°26' E 147°42'6 5.9
2014-Sep-27 15:33S 43°24' E 147°50'6 5.9
2014-Sep-27 14:33S 43°21' E 147°57'6 5.9
2014-Sep-27 13:32S 43°18' E 148°04'6 6.0
2014-Sep-27 12:32S 43°15' E 148°11'3 3.0
2014-Sep-27 11:33S 43°17' E 148°14'5 5.1
2014-Sep-27 10:33S 43°22' E 148°15'5 5.3
2014-Sep-27 09:33S 43°28' E 148°15'6 5.8
2014-Sep-27 08:31S 43°24' E 148°22'7 7.2
2014-Sep-27 07:29S 43°19' E 148°30'3 3.4
2014-Sep-27 06:31S 43°17' E 148°33'1 0.9
2014-Sep-27 05:28S 43°16' E 148°33'2 1.3
2014-Sep-27 04:09S 43°18' E 148°33'0 0.3
2014-Sep-27 03:23S 43°18' E 148°33'0 0.5
2014-Sep-27 02:32S 43°18' E 148°33'1 0.9
2014-Sep-27 01:32S 43°18' E 148°34'1 1.1
2014-Sep-27 00:33S 43°16' E 148°34'1 1.1
2014-Sep-26 23:22S 43°15' E 148°33'2320.6
2014-Sep-26 22:14S 43°16' E 148°01'3 3.8
2014-Sep-26 21:30S 43°16' E 147°58'1311.4
2014-Sep-26 20:21S 43°16' E 148°16'1819.5
2014-Sep-26 19:26S 43°15' E 148°40'2524.5
2014-Sep-26 18:24S 43°16' E 148°06'3 2.8
2014-Sep-26 17:18S 43°16' E 148°01'1418.0
2014-Sep-26 16:31S 43°16' E 148°21'2118.5
2014-Sep-26 15:23S 43°16' E 147°52'4 4.7
2014-Sep-26 14:29S 43°16' E 147°46'4 4.7
2014-Sep-26 13:33S 43°14' E 147°41'8 8.1
2014-Sep-26 12:33S 43°16' E 147°52'7 6.4
2014-Sep-26 11:33S 43°15' E 147°43'7 6.6
2014-Sep-26 10:32S 43°11' E 147°36'7 6.9
2014-Sep-26 09:34S 43°07' E 147°28'8 8.2
2014-Sep-26 08:33S 42°59' E 147°23'1 0.7
2014-Sep-26 07:31S 42°59' E 147°23'0 0.0
2014-Sep-26 06:31S 42°59' E 147°23'0 0.0
2014-Sep-26 05:31S 42°59' E 147°23'0 0.0
2014-Sep-26 04:34S 42°59' E 147°23'0 0.0
2014-Sep-26 03:31S 42°59' E 147°23'4 3.7
2014-Sep-26 02:32S 42°55' E 147°23'3 2.9
2014-Sep-26 01:33S 42°53' E 147°20'0 0.0
2014-Sep-26 00:33S 42°53' E 147°20'0 0.0
2014-Sep-25 23:33S 42°53' E 147°20'0 0.0
2014-Sep-25 22:33S 42°53' E 147°20'0 0.0
2014-Sep-25 21:33S 42°53' E 147°20'0 0.4
2014-Sep-25 20:32S 42°53' E 147°20'0 0.0
2014-Sep-25 19:32S 42°53' E 147°20'0 0.0
2014-Sep-25 18:32S 42°53' E 147°20'0 0.0
2014-Sep-25 17:32S 42°53' E 147°20'0 0.0
2014-Sep-25 16:33S 42°53' E 147°20'0 0.0
2014-Sep-25 15:32S 42°53' E 147°20'0 0.0
2014-Sep-25 14:32S 42°53' E 147°20'0 0.0
2014-Sep-25 13:32S 42°53' E 147°20'0 0.0
2014-Sep-25 12:32S 42°53' E 147°20'0 0.0
2014-Sep-25 11:32S 42°53' E 147°20'0 0.0
2014-Sep-25 10:32S 42°53' E 147°20'0 0.0
2014-Sep-25 09:32S 42°53' E 147°20'0 0.0
2014-Sep-25 08:32S 42°53' E 147°20'0 0.0
2014-Sep-25 07:33S 42°53' E 147°20'0 0.0
2014-Sep-25 06:32S 42°53' E 147°20'0 0.0
2014-Sep-25 05:32S 42°53' E 147°20'0 0.0
2014-Sep-25 04:33S 42°53' E 147°20'6 5.8
2014-Sep-25 03:32S 42°59' E 147°23'2 1.7
2014-Sep-25 02:29S 42°59' E 147°21'6 6.7
2014-Sep-25 01:33S 42°53' E 147°20'0 0.3
2014-Sep-25 00:32S 42°53' E 147°20'0 0.0
2014-Sep-24 23:32S 42°53' E 147°20'0 0.0
2014-Sep-24 22:31S 42°53' E 147°20'0 0.0
2014-Sep-24 21:32S 42°53' E 147°20'0 0.0
2014-Sep-24 20:32S 42°53' E 147°20'0 0.0
2014-Sep-24 19:31S 42°53' E 147°20'0 0.0
2014-Sep-24 18:31S 42°53' E 147°20'0 0.0
2014-Sep-24 17:32S 42°53' E 147°20'0 0.0
2014-Sep-24 16:31S 42°53' E 147°20'0 0.0
2014-Sep-24 15:32S 42°53' E 147°20'0 0.0
2014-Sep-24 14:32S 42°53' E 147°20'0 0.0
2014-Sep-24 13:32S 42°53' E 147°20'0 0.0
2014-Sep-24 12:32S 42°53' E 147°20'0 0.0
2014-Sep-24 11:32S 42°53' E 147°20'0 0.0
2014-Sep-24 10:33S 42°53' E 147°20'1 1.0
2014-Sep-24 09:32S 42°54' E 147°21'2 2.2
2014-Sep-24 08:33S 42°55' E 147°23'2 2.4
2014-Sep-24 07:33S 42°58' E 147°22'0 0.2
2014-Sep-24 06:33S 42°58' E 147°22'1 1.3
2014-Sep-24 05:33S 42°57' E 147°23'4 3.7
2014-Sep-24 04:33S 43°00' E 147°23'1 1.1
2014-Sep-24 03:33S 43°01' E 147°22'7 7.1
2014-Sep-24 02:33S 42°54' E 147°22'2 1.8
2014-Sep-24 01:31S 42°53' E 147°20'0 0.0
2014-Sep-24 00:32S 42°53' E 147°20'0 0.0
2014-Sep-23 23:32S 42°53' E 147°20'0 0.0
2014-Sep-23 22:32S 42°53' E 147°20'0 0.0
2014-Sep-23 21:33S 42°53' E 147°20'0 0.0
2014-Sep-23 20:33S 42°53' E 147°20'0 0.0
2014-Sep-23 19:32S 42°53' E 147°20'0 0.0
2014-Sep-23 18:33S 42°53' E 147°20'0 0.0
2014-Sep-23 17:32S 42°53' E 147°20'0 0.0
2014-Sep-23 16:32S 42°53' E 147°20'0 0.0
2014-Sep-23 15:32S 42°53' E 147°20'0 0.0
2014-Sep-23 14:33S 42°53' E 147°20'0 0.0
2014-Sep-23 13:33S 42°53' E 147°20'0 0.0
2014-Sep-23 12:33S 42°53' E 147°20'0 0.0
2014-Sep-23 11:33S 42°53' E 147°20'0 0.0
2014-Sep-23 10:32S 42°53' E 147°20'0 0.0
2014-Sep-23 09:32S 42°53' E 147°20'0 0.0
2014-Sep-23 08:33S 42°53' E 147°20'0 0.0
2014-Sep-23 07:33S 42°53' E 147°20'0 0.0
2014-Sep-23 06:33S 42°53' E 147°20'0 0.0
2014-Sep-23 05:32S 42°53' E 147°20'0 0.0
2014-Sep-23 04:33S 42°53' E 147°20'0 0.0
2014-Sep-23 03:33S 42°53' E 147°20'0 0.0
2014-Sep-23 02:33S 42°53' E 147°20'0 0.0
2014-Sep-23 01:33S 42°53' E 147°20'0 0.0
2014-Sep-23 00:33S 42°53' E 147°20'0 0.0
2014-Sep-22 23:33S 42°53' E 147°20'0 0.0
2014-Sep-22 22:33S 42°53' E 147°20'0 0.0
2014-Sep-22 21:32S 42°53' E 147°20'0 0.0
2014-Sep-22 20:32S 42°53' E 147°20'0 0.0
2014-Sep-22 19:33S 42°53' E 147°20'0 0.0
2014-Sep-22 18:32S 42°53' E 147°20'0 0.0
2014-Sep-22 17:33S 42°53' E 147°20'0 0.0
2014-Sep-22 16:33S 42°53' E 147°20'0 0.0
2014-Sep-22 15:33S 42°53' E 147°20'0 0.0
2014-Sep-22 14:33S 42°53' E 147°20'0 0.0
2014-Sep-22 13:33S 42°53' E 147°20'0 0.0
2014-Sep-22 12:33S 42°53' E 147°20'0 0.0
2014-Sep-22 11:32S 42°53' E 147°20'0 0.0
2014-Sep-22 10:33S 42°53' E 147°20'0 0.0
2014-Sep-22 09:32S 42°53' E 147°20'0 0.0
2014-Sep-22 08:32S 42°53' E 147°20'0 0.0
2014-Sep-22 07:33S 42°53' E 147°20'0 0.0
2014-Sep-22 03:24S 42°53' E 147°20'0 0.0
2014-Sep-22 01:29S 42°53' E 147°20'0 0.0
2014-Sep-21 23:33S 42°53' E 147°20'0 0.0
2014-Sep-21 22:32S 42°53' E 147°20'0 0.0
2014-Sep-21 21:32S 42°53' E 147°20'0 0.0
2014-Sep-21 20:33S 42°53' E 147°20'0 0.0
2014-Sep-21 19:32S 42°53' E 147°20'0 0.0
2014-Sep-21 18:33S 42°53' E 147°20'0 0.0
2014-Sep-21 17:33S 42°53' E 147°20'0 0.0
2014-Sep-21 16:32S 42°53' E 147°20'0 0.0
2014-Sep-21 15:32S 42°53' E 147°20'0 0.0
2014-Sep-21 14:33S 42°53' E 147°20'0 0.0
2014-Sep-21 13:32S 42°53' E 147°20'0 0.0
2014-Sep-21 12:32S 42°53' E 147°20'0 0.0
2014-Sep-21 11:32S 42°53' E 147°20'0 0.0
2014-Sep-21 10:30S 42°53' E 147°20'0 0.0
2014-Sep-21 09:32S 42°53' E 147°20'0 0.0
2014-Sep-21 08:33S 42°53' E 147°20'0 0.0
2014-Sep-21 07:32S 42°53' E 147°20'0 0.0
2014-Sep-21 06:32S 42°53' E 147°20'0 0.0
2014-Sep-21 05:32S 42°53' E 147°20'0 0.0
2014-Sep-21 04:32S 42°53' E 147°20'  
Track history (hours):
 
Tides and Currents Weather Stations Pressure Air Temp Water Temp Dewpoint Dewpoint Depression Visibility Wind Speed Wind Dir Waves Ship Positions

Oceanographic research ship Aurora Australis (Australia)

Detailed information on ship capabilities available from University of Delaware's Ocean Information Center.

Last reported at 2014-Oct-01 04:31 UTC. Time now 2014-Oct-01 05:58 UTC.
Position S 42°53' E 147°20'.

Length 94.9 m; beam 20.3 m; draft 7.9 m.

Type: Cargo ship. MMSI: 503043000.

Date/timePositionNaut miles runAvg speedWind from/ knotsBaromVisibWave heightAir tempDewpointWater temp
2014-Oct-01 04:31S 42°53' E 147°20'0 0.0
2014-Oct-01 03:28S 42°53' E 147°20'0 0.0
2014-Oct-01 02:32S 42°53' E 147°20'0 0.0
2014-Oct-01 01:32S 42°53' E 147°20'0 0.0
2014-Oct-01 00:31S 42°53' E 147°20'0 0.0
2014-Sep-30 23:31S 42°53' E 147°20'0 0.0
2014-Sep-30 22:31S 42°53' E 147°20'0 0.0
2014-Sep-30 21:31S 42°53' E 147°20'0 0.0
2014-Sep-30 20:31S 42°53' E 147°20'0 0.0
2014-Sep-30 19:32S 42°53' E 147°20'0 0.0
2014-Sep-30 18:31S 42°53' E 147°20'0 0.0
2014-Sep-30 17:32S 42°53' E 147°20'0 0.0
2014-Sep-30 16:31S 42°53' E 147°20'0 0.0
2014-Sep-30 15:31S 42°53' E 147°20'0 0.0
2014-Sep-30 14:32S 42°53' E 147°20'0 0.0
2014-Sep-30 13:31S 42°53' E 147°20'0 0.0
2014-Sep-30 12:31S 42°53' E 147°20'0 0.0
2014-Sep-30 11:31S 42°53' E 147°20'0 0.0
2014-Sep-30 10:31S 42°53' E 147°20'0 0.0
2014-Sep-30 09:31S 42°53' E 147°20'0 0.0
2014-Sep-30 08:31S 42°53' E 147°20'0 0.0
2014-Sep-30 07:31S 42°53' E 147°20'0 0.0
2014-Sep-30 06:31S 42°53' E 147°20'0 0.0
2014-Sep-30 05:31S 42°53' E 147°20'0 0.0
2014-Sep-30 04:31S 42°53' E 147°20'0 0.0
2014-Sep-30 03:31S 42°53' E 147°20'0 0.0
2014-Sep-30 02:31S 42°53' E 147°20'0 0.0
2014-Sep-30 01:31S 42°53' E 147°20'0 0.0
2014-Sep-30 00:31S 42°53' E 147°20'0 0.0
2014-Sep-29 23:31S 42°53' E 147°20'0 0.0
2014-Sep-29 22:31S 42°53' E 147°20'0 0.0
2014-Sep-29 21:31S 42°53' E 147°20'0 0.0
2014-Sep-29 20:31S 42°53' E 147°20'0 0.0
2014-Sep-29 19:31S 42°53' E 147°20'0 0.0
2014-Sep-29 18:31S 42°53' E 147°20'0 0.0
2014-Sep-29 17:31S 42°53' E 147°20'0 0.0
2014-Sep-29 16:31S 42°53' E 147°20'0 0.0
2014-Sep-29 15:32S 42°53' E 147°20'0 0.0
2014-Sep-29 14:32S 42°53' E 147°20'0 0.0
2014-Sep-29 13:32S 42°53' E 147°20'0 0.0
2014-Sep-29 12:31S 42°53' E 147°20'0 0.0
2014-Sep-29 11:32S 42°53' E 147°20'0 0.0
2014-Sep-29 10:32S 42°53' E 147°20'0 0.0
2014-Sep-29 09:31S 42°53' E 147°20'0 0.0
2014-Sep-29 08:31S 42°53' E 147°20'0 0.0
2014-Sep-29 07:32S 42°53' E 147°20'0 0.0
2014-Sep-29 06:31S 42°53' E 147°20'0 0.0
2014-Sep-29 05:31S 42°53' E 147°20'0 0.0
2014-Sep-29 04:31S 42°53' E 147°20'0 0.0
2014-Sep-29 03:31S 42°53' E 147°20'0 0.0
2014-Sep-29 02:31S 42°53' E 147°20'0 0.0
2014-Sep-29 01:31S 42°53' E 147°20'0 0.0
2014-Sep-29 00:31S 42°53' E 147°20'0 0.0
2014-Sep-28 23:28S 42°53' E 147°20'0 0.0
2014-Sep-28 22:31S 42°53' E 147°20'0 0.0
2014-Sep-28 21:28S 42°53' E 147°20'0 0.0
2014-Sep-28 20:32S 42°53' E 147°20'0 0.0
2014-Sep-28 19:32S 42°53' E 147°20'0 0.0
2014-Sep-28 18:31S 42°53' E 147°20'0 0.0
2014-Sep-28 17:31S 42°53' E 147°20'0 0.0
2014-Sep-28 16:31S 42°53' E 147°20'0 0.0
2014-Sep-28 15:31S 42°53' E 147°20'0 0.0
2014-Sep-28 14:31S 42°53' E 147°20'0 0.0
2014-Sep-28 13:32S 42°53' E 147°20'0 0.0
2014-Sep-28 12:31S 42°53' E 147°20'0 0.0
2014-Sep-28 11:31S 42°53' E 147°20'0 0.0
2014-Sep-28 10:32S 42°53' E 147°20'0 0.0
2014-Sep-28 09:31S 42°53' E 147°20'0 0.0
2014-Sep-28 08:31S 42°53' E 147°20'2 1.6
2014-Sep-28 07:33S 42°54' E 147°22'9 8.7
2014-Sep-28 06:33S 43°03' E 147°23'8 8.0
2014-Sep-28 05:33S 43°07' E 147°32'8 8.2
2014-Sep-28 04:33S 43°12' E 147°41'6 6.3
2014-Sep-28 03:33S 43°16' E 147°48'3 3.5
2014-Sep-28 02:33S 43°18' E 147°52'6 5.4
2014-Sep-28 01:26S 43°20' E 147°60'0 0.3
2014-Sep-28 00:31S 43°20' E 147°59'1 1.1
2014-Sep-27 23:31S 43°19' E 147°58'1 1.5
2014-Sep-27 22:32S 43°19' E 147°56'5 4.5
2014-Sep-27 21:32S 43°15' E 147°56'1 1.4
2014-Sep-27 20:33S 43°16' E 147°55'6 6.0
2014-Sep-27 19:32S 43°20' E 147°49'6 5.7
2014-Sep-27 18:32S 43°24' E 147°43'5 5.5
2014-Sep-27 17:33S 43°27' E 147°37'4 3.9
2014-Sep-27 16:33S 43°26' E 147°42'6 5.9
2014-Sep-27 15:33S 43°24' E 147°50'6 5.9
2014-Sep-27 14:33S 43°21' E 147°57'6 5.9
2014-Sep-27 13:32S 43°18' E 148°04'6 6.0
2014-Sep-27 12:32S 43°15' E 148°11'3 3.0
2014-Sep-27 11:33S 43°17' E 148°14'5 5.1
2014-Sep-27 10:33S 43°22' E 148°15'5 5.3
2014-Sep-27 09:33S 43°28' E 148°15'6 5.8
2014-Sep-27 08:31S 43°24' E 148°22'7 7.2
2014-Sep-27 07:29S 43°19' E 148°30'3 3.4
2014-Sep-27 06:31S 43°17' E 148°33'1 0.9
2014-Sep-27 05:28S 43°16' E 148°33'2 1.3
2014-Sep-27 04:09S 43°18' E 148°33'0 0.3
2014-Sep-27 03:23S 43°18' E 148°33'0 0.5
2014-Sep-27 02:32S 43°18' E 148°33'1 0.9
2014-Sep-27 01:32S 43°18' E 148°34'1 1.1
2014-Sep-27 00:33S 43°16' E 148°34'1 1.1
2014-Sep-26 23:22S 43°15' E 148°33'2320.6
2014-Sep-26 22:14S 43°16' E 148°01'3 3.8
2014-Sep-26 21:30S 43°16' E 147°58'1311.4
2014-Sep-26 20:21S 43°16' E 148°16'1819.5
2014-Sep-26 19:26S 43°15' E 148°40'2524.5
2014-Sep-26 18:24S 43°16' E 148°06'3 2.8
2014-Sep-26 17:18S 43°16' E 148°01'1418.0
2014-Sep-26 16:31S 43°16' E 148°21'2118.5
2014-Sep-26 15:23S 43°16' E 147°52'4 4.7
2014-Sep-26 14:29S 43°16' E 147°46'4 4.7
2014-Sep-26 13:33S 43°14' E 147°41'8 8.1
2014-Sep-26 12:33S 43°16' E 147°52'7 6.4
2014-Sep-26 11:33S 43°15' E 147°43'7 6.6
2014-Sep-26 10:32S 43°11' E 147°36'7 6.9
2014-Sep-26 09:34S 43°07' E 147°28'8 8.2
2014-Sep-26 08:33S 42°59' E 147°23'1 0.7
2014-Sep-26 07:31S 42°59' E 147°23'0 0.0
2014-Sep-26 06:31S 42°59' E 147°23'0 0.0
2014-Sep-26 05:31S 42°59' E 147°23'0 0.0
2014-Sep-26 04:34S 42°59' E 147°23'0 0.0
2014-Sep-26 03:31S 42°59' E 147°23'4 3.7
2014-Sep-26 02:32S 42°55' E 147°23'3 2.9
2014-Sep-26 01:33S 42°53' E 147°20'0 0.0
2014-Sep-26 00:33S 42°53' E 147°20'0 0.0
2014-Sep-25 23:33S 42°53' E 147°20'0 0.0
2014-Sep-25 22:33S 42°53' E 147°20'0 0.0
2014-Sep-25 21:33S 42°53' E 147°20'0 0.4
2014-Sep-25 20:32S 42°53' E 147°20'0 0.0
2014-Sep-25 19:32S 42°53' E 147°20'0 0.0
2014-Sep-25 18:32S 42°53' E 147°20'0 0.0
2014-Sep-25 17:32S 42°53' E 147°20'0 0.0
2014-Sep-25 16:33S 42°53' E 147°20'0 0.0
2014-Sep-25 15:32S 42°53' E 147°20'0 0.0
2014-Sep-25 14:32S 42°53' E 147°20'0 0.0
2014-Sep-25 13:32S 42°53' E 147°20'0 0.0
2014-Sep-25 12:32S 42°53' E 147°20'0 0.0
2014-Sep-25 11:32S 42°53' E 147°20'0 0.0
2014-Sep-25 10:32S 42°53' E 147°20'0 0.0
2014-Sep-25 09:32S 42°53' E 147°20'0 0.0
2014-Sep-25 08:32S 42°53' E 147°20'0 0.0
2014-Sep-25 07:33S 42°53' E 147°20'0 0.0
2014-Sep-25 06:32S 42°53' E 147°20'0 0.0
2014-Sep-25 05:32S 42°53' E 147°20'0 0.0
2014-Sep-25 04:33S 42°53' E 147°20'6 5.8
2014-Sep-25 03:32S 42°59' E 147°23'2 1.7
2014-Sep-25 02:29S 42°59' E 147°21'6 6.7
2014-Sep-25 01:33S 42°53' E 147°20'0 0.3
2014-Sep-25 00:32S 42°53' E 147°20'0 0.0
2014-Sep-24 23:32S 42°53' E 147°20'0 0.0
2014-Sep-24 22:31S 42°53' E 147°20'0 0.0
2014-Sep-24 21:32S 42°53' E 147°20'0 0.0
2014-Sep-24 20:32S 42°53' E 147°20'0 0.0
2014-Sep-24 19:31S 42°53' E 147°20'0 0.0
2014-Sep-24 18:31S 42°53' E 147°20'0 0.0
2014-Sep-24 17:32S 42°53' E 147°20'0 0.0
2014-Sep-24 16:31S 42°53' E 147°20'0 0.0
2014-Sep-24 15:32S 42°53' E 147°20'0 0.0
2014-Sep-24 14:32S 42°53' E 147°20'0 0.0
2014-Sep-24 13:32S 42°53' E 147°20'0 0.0
2014-Sep-24 12:32S 42°53' E 147°20'0 0.0
2014-Sep-24 11:32S 42°53' E 147°20'0 0.0
2014-Sep-24 10:33S 42°53' E 147°20'1 1.0
2014-Sep-24 09:32S 42°54' E 147°21'2 2.2
2014-Sep-24 08:33S 42°55' E 147°23'2 2.4
2014-Sep-24 07:33S 42°58' E 147°22'0 0.2
2014-Sep-24 06:33S 42°58' E 147°22'1 1.3
2014-Sep-24 05:33S 42°57' E 147°23'4 3.7
2014-Sep-24 04:33S 43°00' E 147°23'1 1.1
2014-Sep-24 03:33S 43°01' E 147°22'7 7.1
2014-Sep-24 02:33S 42°54' E 147°22'2 1.8
2014-Sep-24 01:31S 42°53' E 147°20'0 0.0
2014-Sep-24 00:32S 42°53' E 147°20'0 0.0
2014-Sep-23 23:32S 42°53' E 147°20'0 0.0
2014-Sep-23 22:32S 42°53' E 147°20'0 0.0
2014-Sep-23 21:33S 42°53' E 147°20'0 0.0
2014-Sep-23 20:33S 42°53' E 147°20'0 0.0
2014-Sep-23 19:32S 42°53' E 147°20'0 0.0
2014-Sep-23 18:33S 42°53' E 147°20'0 0.0
2014-Sep-23 17:32S 42°53' E 147°20'0 0.0
2014-Sep-23 16:32S 42°53' E 147°20'0 0.0
2014-Sep-23 15:32S 42°53' E 147°20'0 0.0
2014-Sep-23 14:33S 42°53' E 147°20'0 0.0
2014-Sep-23 13:33S 42°53' E 147°20'0 0.0
2014-Sep-23 12:33S 42°53' E 147°20'0 0.0
2014-Sep-23 11:33S 42°53' E 147°20'0 0.0
2014-Sep-23 10:32S 42°53' E 147°20'0 0.0
2014-Sep-23 09:32S 42°53' E 147°20'0 0.0
2014-Sep-23 08:33S 42°53' E 147°20'0 0.0
2014-Sep-23 07:33S 42°53' E 147°20'0 0.0
2014-Sep-23 06:33S 42°53' E 147°20'0 0.0
2014-Sep-23 05:32S 42°53' E 147°20'0 0.0
2014-Sep-23 04:33S 42°53' E 147°20'0 0.0
2014-Sep-23 03:33S 42°53' E 147°20'0 0.0
2014-Sep-23 02:33S 42°53' E 147°20'0 0.0
2014-Sep-23 01:33S 42°53' E 147°20'0 0.0
2014-Sep-23 00:33S 42°53' E 147°20'0 0.0
2014-Sep-22 23:33S 42°53' E 147°20'0 0.0
2014-Sep-22 22:33S 42°53' E 147°20'0 0.0
2014-Sep-22 21:32S 42°53' E 147°20'0 0.0
2014-Sep-22 20:32S 42°53' E 147°20'0 0.0
2014-Sep-22 19:33S 42°53' E 147°20'0 0.0
2014-Sep-22 18:32S 42°53' E 147°20'0 0.0
2014-Sep-22 17:33S 42°53' E 147°20'0 0.0
2014-Sep-22 16:33S 42°53' E 147°20'0 0.0
2014-Sep-22 15:33S 42°53' E 147°20'0 0.0
2014-Sep-22 14:33S 42°53' E 147°20'0 0.0
2014-Sep-22 13:33S 42°53' E 147°20'0 0.0
2014-Sep-22 12:33S 42°53' E 147°20'0 0.0
2014-Sep-22 11:32S 42°53' E 147°20'0 0.0
2014-Sep-22 10:33S 42°53' E 147°20'0 0.0
2014-Sep-22 09:32S 42°53' E 147°20'0 0.0
2014-Sep-22 08:32S 42°53' E 147°20'0 0.0
2014-Sep-22 07:33S 42°53' E 147°20'0 0.0
2014-Sep-22 03:24S 42°53' E 147°20'0 0.0
2014-Sep-22 01:29S 42°53' E 147°20'0 0.0
2014-Sep-21 23:33S 42°53' E 147°20'0 0.0
2014-Sep-21 22:32S 42°53' E 147°20'0 0.0
2014-Sep-21 21:32S 42°53' E 147°20'0 0.0
2014-Sep-21 20:33S 42°53' E 147°20'0 0.0
2014-Sep-21 19:32S 42°53' E 147°20'0 0.0
2014-Sep-21 18:33S 42°53' E 147°20'0 0.0
2014-Sep-21 17:33S 42°53' E 147°20'0 0.0
2014-Sep-21 16:32S 42°53' E 147°20'0 0.0
2014-Sep-21 15:32S 42°53' E 147°20'0 0.0
2014-Sep-21 14:33S 42°53' E 147°20'0 0.0
2014-Sep-21 13:32S 42°53' E 147°20'0 0.0
2014-Sep-21 12:32S 42°53' E 147°20'0 0.0
2014-Sep-21 11:32S 42°53' E 147°20'0 0.0
2014-Sep-21 10:30S 42°53' E 147°20'0 0.0
2014-Sep-21 09:32S 42°53' E 147°20'0 0.0
2014-Sep-21 08:33S 42°53' E 147°20'0 0.0
2014-Sep-21 07:32S 42°53' E 147°20'0 0.0
2014-Sep-21 06:32S 42°53' E 147°20'0 0.0
2014-Sep-21 05:32S 42°53' E 147°20'0 0.0
2014-Sep-21 04:32S 42°53' E 147°20'  

Dump ship's entire track history